createdAt,value
2019-01-11T00:01:44.874Z,89.60
2019-01-11T00:04:12.551Z,89.90
2019-01-11T00:06:40.042Z,90.10
2019-01-11T00:09:08.283Z,90.40
2019-01-11T00:11:36.083Z,90.80
2019-01-11T00:14:03.718Z,90.40
2019-01-11T00:16:31.133Z,90.30
2019-01-11T00:18:58.863Z,90.30
2019-01-11T00:21:26.132Z,90.30
2019-01-11T00:23:53.673Z,90.40
2019-01-11T00:26:21.047Z,90.30
2019-01-11T00:28:48.375Z,90.70
2019-01-11T00:31:15.762Z,90.50
2019-01-11T00:33:43.646Z,90.30
2019-01-11T00:36:11.270Z,90.40
2019-01-11T00:38:38.696Z,90.50
2019-01-11T00:41:06.097Z,90.40
2019-01-11T00:43:33.898Z,90.50
2019-01-11T00:46:01.161Z,90.80
2019-01-11T00:48:28.546Z,90.90
2019-01-11T00:50:56.838Z,91.10
2019-01-11T00:53:24.486Z,90.80
2019-01-11T00:55:51.887Z,90.80
2019-01-11T00:58:19.938Z,90.70
2019-01-11T01:00:47.673Z,91.00
2019-01-11T01:03:15.078Z,91.10
2019-01-11T01:05:42.480Z,91.00
2019-01-11T01:08:09.920Z,91.20
2019-01-11T01:10:37.502Z,90.90
2019-01-11T01:13:05.067Z,90.70
2019-01-11T01:15:32.467Z,90.60
2019-01-11T01:18:00.021Z,90.40
2019-01-11T01:20:27.393Z,90.70
2019-01-11T01:22:55.278Z,90.40
2019-01-11T01:25:22.635Z,90.50
2019-01-11T01:27:50.056Z,90.30
2019-01-11T01:30:17.717Z,90.00
2019-01-11T01:32:45.609Z,89.80
2019-01-11T01:35:13.006Z,90.20
2019-01-11T01:37:40.389Z,90.20
2019-01-11T01:40:09.577Z,90.40
2019-01-11T01:42:37.501Z,90.20
2019-01-11T01:45:06.593Z,90.70
2019-01-11T01:47:34.066Z,90.80
2019-01-11T01:50:01.725Z,91.10
2019-01-11T01:52:29.203Z,91.10
2019-01-11T01:54:56.593Z,90.80
2019-01-11T01:57:24.024Z,90.50
2019-01-11T01:59:51.798Z,90.20
2019-01-11T02:02:19.195Z,90.20
2019-01-11T02:04:46.595Z,90.20
2019-01-11T02:07:14.026Z,90.50
2019-01-11T02:09:41.366Z,90.50
2019-01-11T02:12:08.976Z,90.80
2019-01-11T02:14:36.761Z,90.80
2019-01-11T02:17:04.130Z,90.70
2019-01-11T02:19:33.086Z,90.70
2019-01-11T02:22:00.772Z,90.90
2019-01-11T02:24:28.212Z,90.70
2019-01-11T02:26:55.652Z,90.60
2019-01-11T02:29:23.075Z,90.40
2019-01-11T02:31:50.497Z,90.50
2019-01-11T02:34:17.874Z,90.30
2019-01-11T02:36:45.175Z,90.00
2019-01-11T02:39:12.548Z,89.90
2019-01-11T02:41:39.923Z,89.60
2019-01-11T02:44:07.382Z,89.30
2019-01-11T02:46:34.830Z,89.00
2019-01-11T02:49:02.209Z,89.00
2019-01-11T02:51:29.801Z,89.30
2019-01-11T02:53:57.205Z,89.60
2019-01-11T02:56:24.601Z,89.50
2019-01-11T02:58:52.000Z,89.50
2019-01-11T03:01:19.254Z,89.60
2019-01-11T03:03:46.961Z,89.80
2019-01-11T03:06:14.290Z,89.70
2019-01-11T03:08:41.662Z,89.60
2019-01-11T03:11:09.111Z,89.90
2019-01-11T03:13:36.530Z,89.90
2019-01-11T03:16:04.273Z,89.60
2019-01-11T03:18:32.053Z,89.70
2019-01-11T03:20:59.435Z,90.00
2019-01-11T03:23:26.854Z,90.30
2019-01-11T03:26:14.676Z,90.30
2019-01-11T03:28:42.691Z,90.30
2019-01-11T03:31:32.732Z,90.10
2019-01-11T03:34:00.129Z,90.20
2019-01-11T03:36:27.826Z,89.80
2019-01-11T03:38:55.199Z,89.30
2019-01-11T03:41:22.490Z,89.50
2019-01-11T03:43:49.914Z,89.30
2019-01-11T03:46:17.415Z,89.90
2019-01-11T03:48:45.125Z,89.80
2019-01-11T03:51:12.526Z,90.10
2019-01-11T03:53:39.791Z,90.00
2019-01-11T03:56:07.240Z,89.30
2019-01-11T03:58:34.678Z,89.40
2019-01-11T04:01:01.969Z,89.00
2019-01-11T04:03:29.456Z,89.90
2019-01-11T04:05:56.869Z,90.10
2019-01-11T04:08:24.293Z,90.20
2019-01-11T04:10:52.079Z,90.20
2019-01-11T04:13:19.533Z,89.80
2019-01-11T04:15:46.959Z,89.50
2019-01-11T04:18:34.307Z,89.80
2019-01-11T04:21:01.691Z,89.30
2019-01-11T04:23:29.118Z,89.50
2019-01-11T04:25:56.871Z,89.50
2019-01-11T04:28:24.288Z,89.80
2019-01-11T04:30:52.668Z,90.10
2019-01-11T04:33:20.064Z,89.90
2019-01-11T04:35:47.524Z,89.70
2019-01-11T04:38:14.932Z,89.80
2019-01-11T04:40:42.395Z,89.80
2019-01-11T04:43:09.792Z,90.30
2019-01-11T04:45:37.287Z,90.00
2019-01-11T04:48:04.638Z,90.10
2019-01-11T04:50:32.072Z,90.40
2019-01-11T04:53:00.050Z,90.30
2019-01-11T04:55:27.505Z,90.10
2019-01-11T04:57:54.858Z,89.90
2019-01-11T05:00:22.417Z,89.30
2019-01-11T05:02:49.899Z,89.40
2019-01-11T05:05:17.832Z,89.20
2019-01-11T05:07:45.469Z,89.30
2019-01-11T05:10:14.551Z,89.20
2019-01-11T05:12:42.089Z,89.20
2019-01-11T05:15:09.682Z,89.10
2019-01-11T05:17:37.024Z,88.70
2019-01-11T05:20:05.783Z,88.80
2019-01-11T05:22:33.164Z,88.90
2019-01-11T05:25:00.565Z,88.70
2019-01-11T05:27:27.938Z,88.80
2019-01-11T05:29:55.341Z,88.70
2019-01-11T05:32:22.969Z,89.10
2019-01-11T05:34:50.366Z,88.80
2019-01-11T05:37:17.776Z,88.90
2019-01-11T05:39:45.194Z,89.50
2019-01-11T05:42:12.562Z,89.20
2019-01-11T05:44:39.952Z,88.90
2019-01-11T05:47:07.641Z,89.00
2019-01-11T05:49:35.017Z,89.20
2019-01-11T05:52:02.391Z,89.10
2019-01-11T05:54:29.778Z,89.00
2019-01-11T05:56:57.568Z,88.90
2019-01-11T05:59:24.976Z,88.90
2019-01-11T06:01:52.409Z,89.20
2019-01-11T06:04:57.782Z,89.20
2019-01-11T06:07:36.089Z,89.20
2019-01-11T06:10:05.056Z,89.90
2019-01-11T06:12:32.713Z,89.70
2019-01-11T06:15:00.716Z,90.00
2019-01-11T06:17:28.147Z,90.10
2019-01-11T06:19:55.582Z,89.70
2019-01-11T06:22:23.234Z,89.60
2019-01-11T06:24:50.730Z,89.30
2019-01-11T06:27:17.997Z,89.30
2019-01-11T06:29:45.712Z,89.30
2019-01-11T06:32:13.152Z,88.90
2019-01-11T06:34:40.574Z,89.30
2019-01-11T06:37:07.989Z,89.20
2019-01-11T06:39:35.359Z,89.80
2019-01-11T06:42:10.210Z,89.90
2019-01-11T06:44:39.089Z,89.80
2019-01-11T06:47:06.934Z,89.80
2019-01-11T06:49:34.211Z,89.80
2019-01-11T06:52:01.695Z,90.10
2019-01-11T06:54:29.119Z,90.10
2019-01-11T06:56:56.485Z,89.90
2019-01-11T06:59:23.914Z,89.60
2019-01-11T07:01:51.300Z,89.70
2019-01-11T07:04:18.697Z,90.00
2019-01-11T07:06:46.079Z,89.90
2019-01-11T07:09:13.503Z,89.90
2019-01-11T07:11:40.789Z,89.90
2019-01-11T07:14:08.759Z,90.00
2019-01-11T07:16:36.629Z,89.80
2019-01-11T07:19:04.025Z,89.10
2019-01-11T07:21:31.511Z,89.20
2019-01-11T07:23:59.084Z,89.10
2019-01-11T07:26:26.800Z,89.00
2019-01-11T07:28:54.065Z,89.10
2019-01-11T07:31:24.379Z,89.20
2019-01-11T07:33:51.778Z,89.70
2019-01-11T07:36:29.644Z,89.70
2019-01-11T07:38:57.110Z,89.30
2019-01-11T07:41:24.641Z,89.80
2019-01-11T07:43:52.467Z,89.30
2019-01-11T07:46:20.837Z,89.40
2019-01-11T07:48:48.248Z,89.50
2019-01-11T07:51:15.638Z,89.50
2019-01-11T07:53:43.040Z,89.20
2019-01-11T07:56:10.475Z,89.40
2019-01-11T07:58:38.249Z,89.10
2019-01-11T08:01:05.645Z,89.50
2019-01-11T08:03:33.282Z,89.50
2019-01-11T08:06:00.567Z,89.60
2019-01-11T08:08:29.035Z,89.30
2019-01-11T08:10:56.749Z,89.10
2019-01-11T08:13:24.127Z,89.00
2019-01-11T08:15:51.479Z,89.00
2019-01-11T08:18:18.885Z,89.10
2019-01-11T08:20:46.315Z,89.10
2019-01-11T08:23:13.756Z,89.00
2019-01-11T08:25:41.207Z,89.20
2019-01-11T08:28:08.898Z,89.40
2019-01-11T08:30:36.361Z,89.50
2019-01-11T08:33:03.753Z,89.00
2019-01-11T08:35:31.444Z,89.40
2019-01-11T08:37:58.724Z,89.00
2019-01-11T08:40:26.180Z,89.20
2019-01-11T08:42:53.690Z,88.90
2019-01-11T08:45:21.076Z,88.90
2019-01-11T08:47:48.596Z,89.30
2019-01-11T08:50:17.363Z,89.40
2019-01-11T08:52:44.992Z,89.40
2019-01-11T08:55:12.413Z,89.30
2019-01-11T08:57:39.842Z,89.60
2019-01-11T09:00:08.749Z,89.30
2019-01-11T09:02:36.165Z,89.20
2019-01-11T09:05:03.969Z,89.90
2019-01-11T09:07:31.215Z,89.50
2019-01-11T09:09:58.592Z,89.80
2019-01-11T09:12:26.281Z,89.80
2019-01-11T09:14:53.688Z,89.60
2019-01-11T09:17:21.319Z,89.20
2019-01-11T09:19:48.691Z,89.30
2019-01-11T09:22:16.057Z,89.40
2019-01-11T09:24:43.495Z,89.40
2019-01-11T09:27:10.915Z,89.90
2019-01-11T09:29:38.410Z,89.40
2019-01-11T09:32:06.813Z,89.40
2019-01-11T09:34:34.080Z,89.50
2019-01-11T09:37:01.828Z,89.00
2019-01-11T09:39:29.195Z,88.90
2019-01-11T09:41:56.445Z,89.20
2019-01-11T09:44:23.738Z,89.30
2019-01-11T09:46:51.788Z,89.30
2019-01-11T09:49:19.192Z,89.00
2019-01-11T09:51:46.631Z,88.80
2019-01-11T09:54:14.010Z,88.60
2019-01-11T09:56:41.297Z,88.60
2019-01-11T09:59:09.048Z,88.30
2019-01-11T10:01:36.753Z,88.20
2019-01-11T10:04:04.602Z,87.90
2019-01-11T10:06:34.792Z,88.30
2019-01-11T10:09:02.542Z,88.50
2019-01-11T10:11:32.083Z,88.40
2019-01-11T10:13:59.510Z,88.60
2019-01-11T10:16:27.217Z,88.50
2019-01-11T10:18:54.712Z,88.40
2019-01-11T10:21:23.943Z,88.30
2019-01-11T10:23:51.285Z,88.60
2019-01-11T10:26:18.696Z,88.40
2019-01-11T10:28:47.408Z,88.50
2019-01-11T10:31:15.147Z,88.40
2019-01-11T10:33:42.431Z,88.40
2019-01-11T10:36:09.845Z,88.60
2019-01-11T10:38:37.320Z,88.80
2019-01-11T10:41:04.769Z,88.70
2019-01-11T10:43:32.173Z,88.80
2019-01-11T10:46:00.381Z,88.50
2019-01-11T10:48:28.119Z,88.20
2019-01-11T10:50:55.477Z,88.40
2019-01-11T10:53:22.846Z,88.60
2019-01-11T10:55:50.261Z,88.40
2019-01-11T10:58:17.662Z,88.40
2019-01-11T11:00:45.066Z,88.20
2019-01-11T11:03:12.461Z,88.60
2019-01-11T11:05:39.942Z,88.70
2019-01-11T11:08:07.729Z,88.80
2019-01-11T11:10:35.139Z,88.60
2019-01-11T11:13:02.612Z,88.50
2019-01-11T11:15:30.080Z,88.10
2019-01-11T11:17:57.394Z,88.50
2019-01-11T11:20:26.113Z,88.40
2019-01-11T11:22:53.536Z,88.10
2019-01-11T11:25:21.179Z,88.60
2019-01-11T11:27:49.011Z,88.40
2019-01-11T11:30:17.820Z,88.40
2019-01-11T11:33:04.219Z,88.30
2019-01-11T11:35:31.806Z,88.20
2019-01-11T11:37:59.223Z,88.70
2019-01-11T11:40:27.884Z,88.40
2019-01-11T11:42:55.289Z,88.90
2019-01-11T11:45:22.837Z,88.40
2019-01-11T11:47:50.316Z,88.00
2019-01-11T11:50:17.761Z,87.90
2019-01-11T11:52:45.145Z,88.10
2019-01-11T11:55:12.555Z,88.10
2019-01-11T11:57:40.779Z,88.30
2019-01-11T12:00:12.047Z,88.40
2019-01-11T12:02:40.315Z,88.50
2019-01-11T12:05:07.825Z,88.40
2019-01-11T12:07:35.576Z,88.30
2019-01-11T12:10:03.884Z,88.40
2019-01-11T12:12:31.576Z,89.40
2019-01-11T12:14:59.075Z,89.40
2019-01-11T12:17:26.464Z,89.70
2019-01-11T12:19:57.073Z,90.30
2019-01-11T12:22:23.175Z,90.70
2019-01-11T12:24:50.590Z,90.20
2019-01-11T12:27:18.028Z,89.80
2019-01-11T12:29:45.332Z,90.30
2019-01-11T12:32:19.423Z,89.70
2019-01-11T12:34:42.347Z,90.30
2019-01-11T12:37:10.164Z,90.60
2019-01-11T12:39:37.924Z,90.80
2019-01-11T12:42:05.571Z,91.60
2019-01-11T12:44:33.412Z,91.40
2019-01-11T12:47:00.816Z,91.30
2019-01-11T12:49:28.758Z,91.30
2019-01-11T12:51:56.441Z,91.50
2019-01-11T12:54:23.943Z,91.90
2019-01-11T12:56:51.363Z,91.40
2019-01-11T12:59:18.706Z,91.90
2019-01-11T13:01:46.151Z,91.90
2019-01-11T13:07:03.814Z,91.80
2019-01-11T13:09:31.311Z,91.90
2019-01-11T13:11:58.701Z,91.90
2019-01-11T13:14:26.215Z,92.10
2019-01-11T13:16:53.640Z,92.20
2019-01-11T13:19:21.329Z,92.10
2019-01-11T13:21:48.709Z,92.80
2019-01-11T13:24:16.111Z,92.60
2019-01-11T13:26:43.639Z,92.30
2019-01-11T13:29:11.121Z,92.90
2019-01-11T13:31:39.102Z,92.90
2019-01-11T13:34:06.491Z,92.80
2019-01-11T13:36:33.877Z,92.80
2019-01-11T13:39:01.698Z,92.80
2019-01-11T13:41:30.159Z,93.20
2019-01-11T13:44:09.817Z,93.00
2019-01-11T13:46:37.672Z,93.10
2019-01-11T13:49:05.040Z,92.90
2019-01-11T13:51:32.382Z,92.70
2019-01-11T13:53:59.861Z,93.30
2019-01-11T13:56:27.113Z,93.60
2019-01-11T13:58:54.470Z,93.40
2019-01-11T14:01:22.417Z,93.50
2019-01-11T14:03:49.933Z,93.70
2019-01-11T14:06:17.743Z,93.90
2019-01-11T14:08:45.440Z,94.10
2019-01-11T14:11:12.872Z,94.00
2019-01-11T14:13:40.314Z,94.00
2019-01-11T14:16:07.688Z,94.00
2019-01-11T14:18:35.067Z,94.00
2019-01-11T14:21:02.442Z,94.20
2019-01-11T14:23:30.176Z,94.30
2019-01-11T14:25:57.828Z,94.50
2019-01-11T14:28:25.192Z,94.60
2019-01-11T14:30:52.558Z,94.40
2019-01-11T14:33:19.959Z,94.40
2019-01-11T14:35:47.318Z,94.50
2019-01-11T14:38:15.043Z,94.50
2019-01-11T14:40:43.509Z,94.40
2019-01-11T14:43:11.566Z,94.50
2019-01-11T14:45:39.316Z,94.30
2019-01-11T14:48:07.013Z,94.40
2019-01-11T14:50:34.266Z,94.10
2019-01-11T14:53:01.702Z,94.00
2019-01-11T14:55:29.101Z,94.20
2019-01-11T14:57:56.502Z,94.10
2019-01-11T15:00:23.761Z,94.20
2019-01-11T15:02:51.163Z,94.20
2019-01-11T15:05:19.641Z,94.30
2019-01-11T15:07:47.048Z,94.50
2019-01-11T15:10:15.000Z,94.60
2019-01-11T15:12:43.179Z,95.00
2019-01-11T15:15:10.888Z,94.60
2019-01-11T15:17:38.246Z,94.50
2019-01-11T15:20:08.110Z,94.80
2019-01-11T15:22:35.594Z,94.80
2019-01-11T15:25:03.323Z,95.00
2019-01-11T15:27:31.114Z,95.20
2019-01-11T15:29:58.389Z,95.10
2019-01-11T15:32:25.799Z,95.00
2019-01-11T15:34:53.185Z,95.10
2019-01-11T15:37:20.568Z,95.00
2019-01-11T15:39:48.268Z,95.20
2019-01-11T15:42:16.137Z,95.10
2019-01-11T15:44:43.734Z,95.00
2019-01-11T15:47:11.112Z,94.90
2019-01-11T15:49:38.462Z,94.90
2019-01-11T15:52:05.829Z,95.10
2019-01-11T15:54:33.897Z,95.00
2019-01-11T15:57:01.327Z,94.80
2019-01-11T15:59:28.716Z,95.30
2019-01-11T16:01:56.136Z,95.40
2019-01-11T16:04:23.551Z,95.60
2019-01-11T16:06:51.834Z,95.20
2019-01-11T16:10:03.241Z,95.40
2019-01-11T16:13:18.310Z,95.30
2019-01-11T16:16:14.325Z,95.50
2019-01-11T16:18:41.733Z,95.30
2019-01-11T16:21:09.082Z,95.40
2019-01-11T16:23:36.778Z,95.30
2019-01-11T16:26:04.094Z,95.70
2019-01-11T16:28:31.520Z,95.60
2019-01-11T16:30:58.907Z,95.50
2019-01-11T16:33:26.575Z,95.70
2019-01-11T16:35:53.831Z,95.50
2019-01-11T16:38:21.289Z,95.50
2019-01-11T16:40:48.842Z,95.60
2019-01-11T16:43:16.259Z,95.90
2019-01-11T16:45:43.646Z,95.90
2019-01-11T16:48:11.069Z,95.80
2019-01-11T16:50:38.359Z,95.90
2019-01-11T16:53:05.768Z,96.00
2019-01-11T16:55:34.279Z,96.00
2019-01-11T16:58:01.784Z,96.10
2019-01-11T17:00:29.508Z,96.00
2019-01-11T17:02:56.870Z,96.00
2019-01-11T17:05:24.318Z,95.80
2019-01-11T17:07:51.705Z,96.10
2019-01-11T17:10:19.171Z,95.90
2019-01-11T17:12:46.616Z,95.80
2019-01-11T17:15:15.537Z,95.80
2019-01-11T17:17:42.947Z,96.10
2019-01-11T17:20:13.122Z,95.80
2019-01-11T17:22:41.118Z,96.10
2019-01-11T17:25:08.736Z,95.90
2019-01-11T17:27:36.268Z,95.80
2019-01-11T17:30:05.845Z,95.80
2019-01-11T17:32:33.252Z,95.80
2019-01-11T17:35:00.747Z,95.80
2019-01-11T17:37:28.178Z,96.30
2019-01-11T17:39:55.533Z,96.10
2019-01-11T17:42:22.869Z,96.00
2019-01-11T17:44:50.270Z,96.20
2019-01-11T17:47:17.689Z,96.00
2019-01-11T17:49:45.220Z,95.90
2019-01-11T17:52:12.640Z,95.80
2019-01-11T17:54:40.322Z,95.70
2019-01-11T17:57:07.720Z,95.90
2019-01-11T17:59:35.094Z,95.90
2019-01-11T18:02:02.517Z,96.00
2019-01-11T18:04:29.898Z,96.10
2019-01-11T18:06:57.342Z,96.10
2019-01-11T18:09:24.733Z,96.10
2019-01-11T18:11:52.430Z,95.70
2019-01-11T18:14:19.871Z,95.90
2019-01-11T18:16:47.308Z,96.20
2019-01-11T18:19:14.870Z,96.50
2019-01-11T18:21:42.552Z,96.40
2019-01-11T18:24:09.988Z,96.50
2019-01-11T18:26:37.402Z,96.80
2019-01-11T18:29:04.864Z,96.70
2019-01-11T18:31:32.374Z,96.90
2019-01-11T18:33:59.898Z,97.00
2019-01-11T18:36:27.357Z,97.20
2019-01-11T18:38:56.344Z,97.20
2019-01-11T18:41:23.739Z,97.30
2019-01-11T18:43:51.181Z,97.80
2019-01-11T18:46:18.561Z,97.50
2019-01-11T18:48:45.967Z,97.40
2019-01-11T18:51:13.365Z,97.30
2019-01-11T18:53:40.673Z,97.10
2019-01-11T18:56:08.127Z,97.40
2019-01-11T18:58:35.578Z,97.20
2019-01-11T19:01:05.799Z,97.20
2019-01-11T19:03:33.221Z,97.30
2019-01-11T19:06:00.654Z,97.00
2019-01-11T19:08:28.169Z,96.80
2019-01-11T19:10:55.454Z,96.70
2019-01-11T19:13:22.876Z,97.00
2019-01-11T19:15:50.350Z,97.00
2019-01-11T19:18:17.755Z,97.20
2019-01-11T19:20:45.262Z,96.80
2019-01-11T19:23:12.712Z,96.80
2019-01-11T19:25:40.131Z,96.70
2019-01-11T19:28:07.923Z,96.50
2019-01-11T19:30:35.333Z,96.80
2019-01-11T19:33:03.036Z,96.70
2019-01-11T19:35:30.561Z,96.50
2019-01-11T19:37:58.259Z,96.70
2019-01-11T19:40:25.704Z,96.40
2019-01-11T19:42:53.171Z,96.40
2019-01-11T19:45:21.341Z,96.30
2019-01-11T19:47:48.707Z,96.20
2019-01-11T19:50:18.100Z,96.50
2019-01-11T19:52:45.637Z,96.20
2019-01-11T19:55:13.816Z,96.30
2019-01-11T19:57:41.233Z,96.20
2019-01-11T20:00:14.645Z,96.20
2019-01-11T20:02:42.111Z,96.20
2019-01-11T20:05:09.737Z,96.30
2019-01-11T20:07:37.519Z,96.30
2019-01-11T20:10:06.193Z,96.40
2019-01-11T20:12:33.803Z,96.30
2019-01-11T20:15:01.263Z,96.60
2019-01-11T20:17:29.486Z,96.60
2019-01-11T20:19:56.985Z,96.70
2019-01-11T20:22:24.403Z,96.90
2019-01-11T20:24:55.351Z,96.70
2019-01-11T20:27:22.989Z,96.80
2019-01-11T20:29:51.495Z,96.70
2019-01-11T20:32:19.310Z,96.40
2019-01-11T20:34:46.827Z,96.30
2019-01-11T20:37:23.594Z,96.40
2019-01-11T20:39:50.843Z,96.70
2019-01-11T20:42:18.114Z,96.40
2019-01-11T20:44:45.523Z,96.60
2019-01-11T20:47:12.904Z,96.40
2019-01-11T20:49:40.185Z,96.40
2019-01-11T20:52:07.601Z,96.20
2019-01-11T20:54:35.541Z,96.30
2019-01-11T20:57:03.248Z,96.20
2019-01-11T20:59:30.535Z,96.20
2019-01-11T21:01:58.210Z,96.30
2019-01-11T21:04:25.708Z,96.20
2019-01-11T21:06:53.108Z,96.40
2019-01-11T21:09:20.812Z,96.20
2019-01-11T21:11:48.544Z,96.30
2019-01-11T21:14:15.852Z,96.30
2019-01-11T21:16:43.305Z,96.50
2019-01-11T21:19:10.564Z,96.10
2019-01-11T21:21:38.292Z,96.20
2019-01-11T21:24:05.784Z,95.90
2019-01-11T21:26:33.538Z,95.80
2019-01-11T21:29:00.936Z,95.90
2019-01-11T21:31:28.351Z,95.40
2019-01-11T21:33:55.759Z,95.30
2019-01-11T21:36:23.302Z,95.60
2019-01-11T21:38:51.069Z,95.50
2019-01-11T21:41:18.733Z,95.40
2019-01-11T21:43:46.408Z,95.50
2019-01-11T21:46:13.688Z,95.40
2019-01-11T21:48:41.514Z,95.50
2019-01-11T21:51:08.922Z,95.40
2019-01-11T21:53:36.349Z,95.60
2019-01-11T21:56:03.870Z,95.70
2019-01-11T21:58:31.286Z,95.70
2019-01-11T22:00:58.672Z,95.80
2019-01-11T22:03:26.204Z,96.20
2019-01-11T22:05:53.616Z,96.20
2019-01-11T22:08:20.882Z,96.40
2019-01-11T22:10:48.667Z,96.70
2019-01-11T22:13:16.292Z,96.70
2019-01-11T22:15:43.944Z,96.80
2019-01-11T22:18:11.376Z,97.00
2019-01-11T22:20:38.747Z,97.30
2019-01-11T22:23:06.165Z,97.50
2019-01-11T22:25:33.581Z,97.60
2019-01-11T22:28:00.989Z,97.50
2019-01-11T22:30:30.433Z,97.70
2019-01-11T22:32:57.691Z,97.80
2019-01-11T22:35:25.413Z,97.60
2019-01-11T22:37:52.813Z,97.80
2019-01-11T22:40:21.703Z,97.60
2019-01-11T22:42:51.459Z,97.70
2019-01-11T22:45:18.868Z,97.80
2019-01-11T22:47:46.256Z,97.80
2019-01-11T22:50:13.687Z,97.90
2019-01-11T22:52:41.377Z,97.90
2019-01-11T22:55:10.136Z,97.80
2019-01-11T22:57:37.482Z,97.80
2019-01-11T23:00:34.576Z,97.90
2019-01-11T23:03:03.544Z,97.90
2019-01-11T23:05:31.076Z,97.80
2019-01-11T23:08:01.967Z,97.60
2019-01-11T23:11:10.479Z,97.50
2019-01-11T23:13:38.007Z,97.60
2019-01-11T23:16:12.037Z,97.60
2019-01-11T23:18:39.506Z,97.40
2019-01-11T23:21:08.016Z,97.40
2019-01-11T23:23:35.416Z,97.50
2019-01-11T23:26:02.971Z,97.70
2019-01-11T23:28:30.334Z,97.90
2019-01-11T23:30:57.895Z,97.90
2019-01-11T23:33:25.302Z,98.10
2019-01-11T23:35:52.701Z,98.10
2019-01-11T23:38:20.258Z,98.10
2019-01-11T23:40:47.660Z,98.20
2019-01-11T23:43:15.341Z,98.20
2019-01-11T23:45:42.720Z,98.20
2019-01-11T23:48:10.132Z,98.30
2019-01-11T23:50:37.777Z,98.30
2019-01-11T23:53:05.741Z,98.30
2019-01-11T23:55:33.405Z,98.10
2019-01-11T23:58:00.665Z,98.30
